createdAt,value
2023-02-11T00:01:08.211Z,45.83
2023-02-11T00:03:36.214Z,41.00
2023-02-11T00:06:06.396Z,45.80
2023-02-11T00:08:35.362Z,40.37
2023-02-11T00:11:03.015Z,44.70
2023-02-11T00:13:30.810Z,44.77
2023-02-11T00:15:58.256Z,45.97
2023-02-11T00:18:25.725Z,48.23
2023-02-11T00:20:53.178Z,35.20
2023-02-11T00:23:20.625Z,36.37
2023-02-11T00:25:49.650Z,44.33
2023-02-11T00:28:17.249Z,48.73
2023-02-11T00:30:44.803Z,40.60
2023-02-11T00:33:12.293Z,43.00
2023-02-11T00:35:39.784Z,38.67
2023-02-11T00:38:08.651Z,45.70
2023-02-11T00:40:36.110Z,44.63
2023-02-11T00:43:05.802Z,44.53
2023-02-11T00:45:33.242Z,38.17
2023-02-11T00:48:02.960Z,51.17
2023-02-11T00:50:30.455Z,54.53
2023-02-11T00:52:57.959Z,43.40
2023-02-11T00:55:25.428Z,41.93
2023-02-11T00:57:52.874Z,55.80
2023-02-11T01:00:22.206Z,50.53
2023-02-11T01:02:49.668Z,42.97
2023-02-11T01:05:17.217Z,47.07
2023-02-11T01:07:44.710Z,52.97
2023-02-11T01:10:13.166Z,41.47
2023-02-11T01:12:41.300Z,46.50
2023-02-11T01:15:12.698Z,46.00
2023-02-11T01:17:41.768Z,48.77
2023-02-11T01:20:15.124Z,46.47
2023-02-11T01:22:42.571Z,55.37
2023-02-11T01:25:10.199Z,45.90
2023-02-11T01:27:38.235Z,48.63
2023-02-11T01:30:07.857Z,46.60
2023-02-11T01:32:35.851Z,43.77
2023-02-11T01:35:04.958Z,39.23
2023-02-11T01:37:33.705Z,40.83
2023-02-11T01:40:02.254Z,49.20
2023-02-11T01:42:30.029Z,44.97
2023-02-11T01:45:01.016Z,54.23
2023-02-11T01:47:28.478Z,50.80
2023-02-11T01:49:58.698Z,43.20
2023-02-11T01:52:35.837Z,48.00
2023-02-11T01:55:31.990Z,47.33
2023-02-11T01:58:03.333Z,60.80
2023-02-11T02:00:36.130Z,52.70
2023-02-11T02:03:08.196Z,49.77
2023-02-11T02:05:41.773Z,50.10
2023-02-11T02:08:18.590Z,42.80
2023-02-11T02:10:48.610Z,48.97
2023-02-11T02:13:17.330Z,52.97
2023-02-11T02:15:51.520Z,66.87
2023-02-11T02:18:33.946Z,52.53
2023-02-11T02:21:30.701Z,60.43
2023-02-11T02:24:44.526Z,48.30
2023-02-11T02:27:25.912Z,54.97
2023-02-11T02:30:37.523Z,49.33
2023-02-11T02:33:22.313Z,52.13
2023-02-11T02:35:59.351Z,51.07
2023-02-11T02:38:32.493Z,48.70
2023-02-11T02:41:04.015Z,50.23
2023-02-11T02:43:31.685Z,52.30
2023-02-11T02:46:14.394Z,49.17
2023-02-11T02:48:43.880Z,35.00
2023-02-11T02:51:24.551Z,51.97
2023-02-11T02:54:01.916Z,55.03
2023-02-11T02:56:40.653Z,48.80
2023-02-11T02:59:39.291Z,60.90
2023-02-11T03:02:14.947Z,52.33
2023-02-11T03:04:52.606Z,55.03
2023-02-11T03:07:26.451Z,48.93
2023-02-11T03:10:00.221Z,46.47
2023-02-11T03:12:31.595Z,48.40
2023-02-11T03:15:00.802Z,45.37
2023-02-11T03:17:31.045Z,52.33
2023-02-11T03:20:00.959Z,52.50
2023-02-11T03:22:34.166Z,49.47
2023-02-11T03:25:03.072Z,56.67
2023-02-11T03:27:36.757Z,59.83
2023-02-11T03:30:11.991Z,49.23
2023-02-11T03:32:43.459Z,55.63
2023-02-11T03:35:19.130Z,45.13
2023-02-11T03:37:52.837Z,55.00
2023-02-11T03:40:22.408Z,50.17
2023-02-11T03:42:54.521Z,57.27
2023-02-11T03:45:24.917Z,47.93
2023-02-11T03:47:58.296Z,51.67
2023-02-11T03:50:28.264Z,51.87
2023-02-11T03:52:57.417Z,50.73
2023-02-11T03:55:27.506Z,61.83
2023-02-11T03:57:55.123Z,42.50
2023-02-11T04:00:30.035Z,37.77
2023-02-11T04:02:57.530Z,45.83
2023-02-11T04:05:25.018Z,43.90
2023-02-11T04:07:54.032Z,48.70
2023-02-11T04:10:21.765Z,50.63
2023-02-11T04:12:49.279Z,44.97
2023-02-11T04:15:16.770Z,59.70
2023-02-11T04:17:44.569Z,49.60
2023-02-11T04:20:12.721Z,46.20
2023-02-11T04:22:40.430Z,40.73
2023-02-11T04:25:10.415Z,48.00
2023-02-11T04:27:38.320Z,44.77
2023-02-11T04:30:07.270Z,50.80
2023-02-11T04:32:34.784Z,41.40
2023-02-11T04:35:02.734Z,48.80
2023-02-11T04:37:30.286Z,56.03
2023-02-11T04:39:58.002Z,46.10
2023-02-11T04:42:26.889Z,53.00
2023-02-11T04:44:54.363Z,42.30
2023-02-11T04:47:21.951Z,48.13
2023-02-11T04:49:49.588Z,43.97
2023-02-11T04:52:17.176Z,43.97
2023-02-11T04:54:44.681Z,46.20
2023-02-11T04:57:12.173Z,44.77
2023-02-11T04:59:41.541Z,49.17
2023-02-11T05:02:09.170Z,45.47
2023-02-11T05:04:36.630Z,46.90
2023-02-11T05:07:04.132Z,48.20
2023-02-11T05:09:31.639Z,46.30
2023-02-11T05:11:59.091Z,46.00
2023-02-11T05:14:26.676Z,44.43
2023-02-11T05:16:55.591Z,40.97
2023-02-11T05:19:23.099Z,43.27
2023-02-11T05:22:02.161Z,46.13
2023-02-11T05:24:30.388Z,37.97
2023-02-11T05:26:57.868Z,55.33
2023-02-11T05:29:25.358Z,39.80
2023-02-11T05:31:56.479Z,46.93
2023-02-11T05:34:23.924Z,55.70
2023-02-11T05:36:51.376Z,55.20
2023-02-11T05:39:18.877Z,48.67
2023-02-11T05:41:46.608Z,49.50
2023-02-11T05:44:14.136Z,40.97
2023-02-11T05:46:41.673Z,45.57
2023-02-11T05:49:10.534Z,47.80
2023-02-11T05:51:38.037Z,45.80
2023-02-11T05:54:05.851Z,35.63
2023-02-11T05:56:33.362Z,43.90
2023-02-11T05:59:01.378Z,41.87
2023-02-11T06:01:28.985Z,44.97
2023-02-11T06:03:56.543Z,45.60
2023-02-11T06:06:25.547Z,43.77
2023-02-11T06:08:53.054Z,40.43
2023-02-11T06:11:20.765Z,50.00
2023-02-11T06:13:48.384Z,42.10
2023-02-11T06:16:16.010Z,43.20
2023-02-11T06:18:43.837Z,46.90
2023-02-11T06:21:12.355Z,43.33
2023-02-11T06:23:41.318Z,38.97
2023-02-11T06:26:10.488Z,39.67
2023-02-11T06:28:40.761Z,44.53
2023-02-11T06:31:09.728Z,40.97
2023-02-11T06:33:37.454Z,41.73
2023-02-11T06:36:12.286Z,40.40
2023-02-11T06:38:41.202Z,36.90
2023-02-11T06:41:10.556Z,42.87
2023-02-11T06:43:38.226Z,34.07
2023-02-11T06:46:05.956Z,45.40
2023-02-11T06:48:34.300Z,34.47
2023-02-11T06:51:04.213Z,35.67
2023-02-11T06:53:31.778Z,39.77
2023-02-11T06:56:05.477Z,40.53
2023-02-11T06:58:33.784Z,43.37
2023-02-11T07:01:01.483Z,36.77
2023-02-11T07:03:28.977Z,42.80
2023-02-11T07:05:56.431Z,35.17
2023-02-11T07:08:23.899Z,47.50
2023-02-11T07:10:51.364Z,35.80
2023-02-11T07:13:20.132Z,40.33
2023-02-11T07:15:47.664Z,35.33
2023-02-11T07:18:15.223Z,39.70
2023-02-11T07:20:43.024Z,41.47
2023-02-11T07:23:10.583Z,40.60
2023-02-11T07:25:38.538Z,44.83
2023-02-11T07:28:06.462Z,40.47
2023-02-11T07:30:35.265Z,47.30
2023-02-11T07:33:02.770Z,59.73
2023-02-11T07:35:30.252Z,42.13
2023-02-11T07:37:57.824Z,40.93
2023-02-11T07:40:25.344Z,47.10
2023-02-11T07:42:52.816Z,36.33
2023-02-11T07:45:20.273Z,39.00
2023-02-11T07:47:49.091Z,36.63
2023-02-11T07:50:17.858Z,41.00
2023-02-11T07:52:45.340Z,35.37
2023-02-11T07:55:13.054Z,34.43
2023-02-11T07:57:41.209Z,41.73
2023-02-11T08:00:09.609Z,40.10
2023-02-11T08:02:39.782Z,43.30
2023-02-11T08:05:09.209Z,36.87
2023-02-11T08:07:36.675Z,35.33
2023-02-11T08:10:05.382Z,35.47
2023-02-11T08:12:32.845Z,38.77
2023-02-11T08:15:00.320Z,40.77
2023-02-11T08:17:27.979Z,40.83
2023-02-11T08:19:55.522Z,38.67
2023-02-11T08:22:24.376Z,37.30
2023-02-11T08:24:52.503Z,32.80
2023-02-11T08:27:20.242Z,42.67
2023-02-11T08:29:47.750Z,39.37
2023-02-11T08:32:16.661Z,34.23
2023-02-11T08:34:44.186Z,33.50
2023-02-11T08:37:11.671Z,39.47
2023-02-11T08:39:40.524Z,40.53
2023-02-11T08:42:08.016Z,28.73
2023-02-11T08:44:35.552Z,34.63
2023-02-11T08:47:03.057Z,30.00
2023-02-11T08:49:32.210Z,40.57
2023-02-11T08:52:03.765Z,41.83
2023-02-11T08:54:31.935Z,40.40
2023-02-11T08:57:01.895Z,38.50
2023-02-11T08:59:29.492Z,47.23
2023-02-11T09:01:57.931Z,38.70
2023-02-11T09:04:25.510Z,30.80
2023-02-11T09:06:53.013Z,41.73
2023-02-11T09:09:20.950Z,33.97
2023-02-11T09:11:48.461Z,41.63
2023-02-11T09:14:20.436Z,34.07
2023-02-11T09:16:49.513Z,33.20
2023-02-11T09:19:17.848Z,36.50
2023-02-11T09:21:45.432Z,37.43
2023-02-11T09:24:13.102Z,39.97
2023-02-11T09:26:43.566Z,32.83
2023-02-11T09:29:11.092Z,39.63
2023-02-11T09:31:40.064Z,27.53
2023-02-11T09:34:07.741Z,38.37
2023-02-11T09:36:38.232Z,37.20
2023-02-11T09:39:07.518Z,34.10
2023-02-11T09:41:43.372Z,39.40
2023-02-11T09:44:19.482Z,32.07
2023-02-11T09:47:04.037Z,37.53
2023-02-11T09:49:36.346Z,35.40
2023-02-11T09:52:07.658Z,32.80
2023-02-11T09:54:38.755Z,33.00
2023-02-11T09:57:10.529Z,30.77
2023-02-11T09:59:50.431Z,34.97
2023-02-11T10:02:58.471Z,37.13
2023-02-11T10:05:48.301Z,33.83
2023-02-11T10:08:24.828Z,44.70
2023-02-11T10:11:03.847Z,43.87
2023-02-11T10:13:59.702Z,36.00
2023-02-11T10:16:44.802Z,34.40
2023-02-11T10:19:32.649Z,29.50
2023-02-11T10:22:10.944Z,28.60
2023-02-11T10:24:39.858Z,36.80
2023-02-11T10:27:17.314Z,37.17
2023-02-11T10:29:49.104Z,36.37
2023-02-11T10:32:28.750Z,34.20
2023-02-11T10:35:02.744Z,32.57
2023-02-11T10:37:30.932Z,36.67
2023-02-11T10:39:58.430Z,32.90
2023-02-11T10:42:26.184Z,33.10
2023-02-11T10:45:00.031Z,36.00
2023-02-11T10:47:32.720Z,35.90
2023-02-11T10:50:04.172Z,30.90
2023-02-11T10:52:32.291Z,35.70
2023-02-11T10:55:03.119Z,37.37
2023-02-11T10:57:35.216Z,32.57
2023-02-11T11:00:08.836Z,36.33
2023-02-11T11:02:39.643Z,30.27
2023-02-11T11:05:18.131Z,28.80
2023-02-11T11:07:54.680Z,36.07
2023-02-11T11:10:42.972Z,42.87
2023-02-11T11:13:29.410Z,34.53
2023-02-11T11:16:23.438Z,30.17
2023-02-11T11:18:53.314Z,33.20
2023-02-11T11:21:24.749Z,31.40
2023-02-11T11:23:56.538Z,34.13
2023-02-11T11:26:26.556Z,41.03
2023-02-11T11:29:00.695Z,37.37
2023-02-11T11:31:31.930Z,34.47
2023-02-11T11:34:01.491Z,29.63
2023-02-11T11:36:36.865Z,28.53
2023-02-11T11:39:18.593Z,36.03
2023-02-11T11:41:52.514Z,33.13
2023-02-11T11:44:25.763Z,30.40
2023-02-11T11:47:13.140Z,41.00
2023-02-11T11:49:46.154Z,27.40
2023-02-11T11:52:27.159Z,38.43
2023-02-11T11:55:03.702Z,32.67
2023-02-11T11:57:33.301Z,34.60
2023-02-11T12:00:00.794Z,41.10
2023-02-11T12:02:52.608Z,37.87
2023-02-11T12:05:27.151Z,28.73
2023-02-11T12:08:06.741Z,27.00
2023-02-11T12:10:49.345Z,27.13
2023-02-11T12:13:28.600Z,28.93
2023-02-11T12:16:05.237Z,32.80
2023-02-11T12:18:48.702Z,29.00
2023-02-11T12:21:30.362Z,28.23
2023-02-11T12:24:18.203Z,26.10
2023-02-11T12:26:50.782Z,24.00
2023-02-11T12:29:28.641Z,31.27
2023-02-11T12:32:07.891Z,26.57
2023-02-11T12:34:50.212Z,28.03
2023-02-11T12:37:31.552Z,25.47
2023-02-11T12:40:10.906Z,32.00
2023-02-11T12:43:08.438Z,25.63
2023-02-11T12:45:47.161Z,22.07
2023-02-11T12:48:30.908Z,28.33
2023-02-11T12:51:02.780Z,30.63
2023-02-11T12:53:44.955Z,25.33
2023-02-11T12:56:20.550Z,23.93
2023-02-11T12:58:51.158Z,28.67
2023-02-11T13:01:23.419Z,27.77
2023-02-11T13:03:56.758Z,24.00
2023-02-11T13:06:30.190Z,30.40
2023-02-11T13:09:02.646Z,23.53
2023-02-11T13:11:38.302Z,23.30
2023-02-11T13:14:13.414Z,25.37
2023-02-11T13:16:43.452Z,25.73
2023-02-11T13:19:22.263Z,32.10
2023-02-11T13:22:01.479Z,28.57
2023-02-11T13:24:38.068Z,30.00
2023-02-11T13:27:25.712Z,26.53
2023-02-11T13:30:24.061Z,25.60
2023-02-11T13:33:07.656Z,29.37
2023-02-11T13:35:36.636Z,28.77
2023-02-11T13:38:07.420Z,30.87
2023-02-11T13:40:37.752Z,30.90
2023-02-11T13:43:21.718Z,31.90
2023-02-11T13:45:51.028Z,28.53
2023-02-11T13:48:23.928Z,24.33
2023-02-11T13:50:55.299Z,31.73
2023-02-11T13:53:24.353Z,26.53
2023-02-11T13:55:54.042Z,28.83
2023-02-11T13:58:39.833Z,29.27
2023-02-11T14:01:08.070Z,29.07
2023-02-11T14:03:57.886Z,33.27
2023-02-11T14:06:46.313Z,24.50
2023-02-11T14:09:38.061Z,29.20
2023-02-11T14:12:23.498Z,29.70
2023-02-11T14:15:20.872Z,27.67
2023-02-11T14:17:48.337Z,28.13
2023-02-11T14:20:44.019Z,29.27
2023-02-11T14:23:27.169Z,25.43
2023-02-11T14:26:27.983Z,23.60
2023-02-11T14:29:01.471Z,24.90
2023-02-11T14:31:39.769Z,23.33
2023-02-11T14:34:35.379Z,29.00
2023-02-11T14:37:18.747Z,33.10
2023-02-11T14:40:03.207Z,22.43
2023-02-11T14:42:31.802Z,25.70
2023-02-11T14:45:05.276Z,30.20
2023-02-11T14:47:41.412Z,29.23
2023-02-11T14:50:18.615Z,28.60
2023-02-11T14:52:46.224Z,25.07
2023-02-11T14:55:28.979Z,28.73
2023-02-11T14:58:16.150Z,24.27
2023-02-11T15:00:53.961Z,29.80
2023-02-11T15:03:35.206Z,31.70
2023-02-11T15:06:06.085Z,32.53
2023-02-11T15:08:36.140Z,29.80
2023-02-11T15:11:08.739Z,30.90
2023-02-11T15:13:36.381Z,30.50
2023-02-11T15:16:07.931Z,26.77
2023-02-11T15:18:41.962Z,26.33
2023-02-11T15:21:10.441Z,38.90
2023-02-11T15:23:38.831Z,27.40
2023-02-11T15:26:13.996Z,29.70
2023-02-11T15:28:48.770Z,27.90
2023-02-11T15:31:18.796Z,29.57
2023-02-11T15:33:47.806Z,34.17
2023-02-11T15:36:16.441Z,41.33
2023-02-11T15:38:44.147Z,36.63
2023-02-11T15:41:34.867Z,31.67
2023-02-11T15:44:02.492Z,37.93
2023-02-11T15:46:38.707Z,31.50
2023-02-11T15:49:08.496Z,28.83
2023-02-11T15:51:38.722Z,34.43
2023-02-11T15:54:09.485Z,32.83
2023-02-11T15:56:43.017Z,32.17
2023-02-11T15:59:18.201Z,27.87
2023-02-11T16:01:46.824Z,37.63
2023-02-11T16:04:21.898Z,28.63
2023-02-11T16:06:50.955Z,27.03
2023-02-11T16:09:31.245Z,28.03
2023-02-11T16:12:00.356Z,27.37
2023-02-11T16:14:34.679Z,38.47
2023-02-11T16:17:06.391Z,28.67
2023-02-11T16:19:36.420Z,36.53
2023-02-11T16:22:09.843Z,32.40
2023-02-11T16:24:39.966Z,24.00
2023-02-11T16:27:19.626Z,26.50
2023-02-11T16:29:49.026Z,25.77
2023-02-11T16:32:19.252Z,31.03
2023-02-11T16:34:48.445Z,33.47
2023-02-11T16:37:15.958Z,28.93
2023-02-11T16:39:43.537Z,26.50
2023-02-11T16:42:11.947Z,25.13
2023-02-11T16:44:39.890Z,31.33
2023-02-11T16:47:13.435Z,27.80
2023-02-11T16:49:43.286Z,31.33
2023-02-11T16:52:16.567Z,26.40
2023-02-11T16:54:44.037Z,28.37
2023-02-11T16:57:14.762Z,33.30
2023-02-11T16:59:42.259Z,34.10
2023-02-11T17:02:16.597Z,29.33
2023-02-11T17:04:44.953Z,31.43
2023-02-11T17:07:13.986Z,28.53
2023-02-11T17:09:41.479Z,29.80
2023-02-11T17:12:08.924Z,27.90
2023-02-11T17:14:36.470Z,25.37
2023-02-11T17:17:05.204Z,25.77
2023-02-11T17:19:32.753Z,27.67
2023-02-11T17:22:00.404Z,34.73
2023-02-11T17:24:29.339Z,32.37
2023-02-11T17:26:56.877Z,26.33
2023-02-11T17:29:27.105Z,23.47
2023-02-11T17:31:54.770Z,20.53
2023-02-11T17:34:23.039Z,30.03
2023-02-11T17:36:51.734Z,20.07
2023-02-11T17:39:22.584Z,29.77
2023-02-11T17:41:51.516Z,22.73
2023-02-11T17:44:19.258Z,25.87
2023-02-11T17:46:46.712Z,22.80
2023-02-11T17:49:14.222Z,23.17
2023-02-11T17:51:41.768Z,23.80
2023-02-11T17:54:13.023Z,25.37
2023-02-11T17:56:41.590Z,23.80
2023-02-11T17:59:11.773Z,21.53
2023-02-11T18:01:41.019Z,29.13
2023-02-11T18:04:11.678Z,17.77
2023-02-11T18:06:39.175Z,20.97
2023-02-11T18:09:07.240Z,23.30
2023-02-11T18:11:37.152Z,28.03
2023-02-11T18:14:07.688Z,25.53
2023-02-11T18:16:39.178Z,21.90
2023-02-11T18:19:07.698Z,25.23
2023-02-11T18:21:35.659Z,22.70
2023-02-11T18:24:06.791Z,21.67
2023-02-11T18:26:35.263Z,23.80
2023-02-11T18:29:03.778Z,22.33
2023-02-11T18:31:31.494Z,23.67
2023-02-11T18:34:00.467Z,27.53
2023-02-11T18:36:28.046Z,22.50
2023-02-11T18:38:57.961Z,26.63
2023-02-11T18:41:25.419Z,25.80
2023-02-11T18:43:53.718Z,25.57
2023-02-11T18:46:21.333Z,23.80
2023-02-11T18:48:49.972Z,21.70
2023-02-11T18:51:19.591Z,27.70
2023-02-11T18:53:47.386Z,25.70
2023-02-11T18:56:17.006Z,22.33
2023-02-11T18:58:44.652Z,28.43
2023-02-11T19:01:14.761Z,20.40
2023-02-11T19:03:42.654Z,24.40
2023-02-11T19:06:16.401Z,21.43
2023-02-11T19:08:45.282Z,18.70
2023-02-11T19:11:14.520Z,18.03
2023-02-11T19:13:47.547Z,17.63
2023-02-11T19:16:16.777Z,20.73
2023-02-11T19:18:44.595Z,21.73
2023-02-11T19:21:13.601Z,22.93
2023-02-11T19:23:41.153Z,17.33
2023-02-11T19:26:10.011Z,21.47
2023-02-11T19:28:38.008Z,19.53
2023-02-11T19:31:09.731Z,24.13
2023-02-11T19:33:37.673Z,15.57
2023-02-11T19:36:06.898Z,18.50
2023-02-11T19:38:34.808Z,26.83
2023-02-11T19:41:02.988Z,18.23
2023-02-11T19:43:31.832Z,19.40
2023-02-11T19:45:59.351Z,16.63
2023-02-11T19:48:26.878Z,21.43
2023-02-11T19:50:54.566Z,16.27
2023-02-11T19:53:22.221Z,13.90
2023-02-11T19:55:50.949Z,20.17
2023-02-11T19:58:18.751Z,18.23
2023-02-11T20:00:47.552Z,18.63
2023-02-11T20:03:15.024Z,12.77
2023-02-11T20:05:46.945Z,15.37
2023-02-11T20:08:16.897Z,12.93
2023-02-11T20:10:44.512Z,12.17
2023-02-11T20:13:11.959Z,18.73
2023-02-11T20:15:39.510Z,14.53
2023-02-11T20:18:08.532Z,14.07
2023-02-11T20:20:37.331Z,15.90
2023-02-11T20:23:04.881Z,18.17
2023-02-11T20:25:32.329Z,11.57
2023-02-11T20:27:59.794Z,14.47
2023-02-11T20:30:27.300Z,18.53
2023-02-11T20:32:54.904Z,18.63
2023-02-11T20:35:23.752Z,17.83
2023-02-11T20:37:51.711Z,17.07
2023-02-11T20:40:19.576Z,17.20
2023-02-11T20:42:47.151Z,17.67
2023-02-11T20:45:14.644Z,15.73
2023-02-11T20:47:42.381Z,17.50
2023-02-11T20:50:10.964Z,16.23
2023-02-11T20:52:40.191Z,19.20
2023-02-11T20:55:07.800Z,16.23
2023-02-11T20:57:35.484Z,26.50
2023-02-11T21:00:03.249Z,16.00
2023-02-11T21:02:31.075Z,18.50
2023-02-11T21:04:58.529Z,16.70
2023-02-11T21:07:29.089Z,14.63
2023-02-11T21:09:58.181Z,13.30
2023-02-11T21:12:25.692Z,22.00
2023-02-11T21:14:54.798Z,20.43
2023-02-11T21:17:22.367Z,21.70
2023-02-11T21:19:49.869Z,15.90
2023-02-11T21:22:17.328Z,20.80
2023-02-11T21:24:44.904Z,16.80
2023-02-11T21:27:13.835Z,25.53
2023-02-11T21:29:53.329Z,16.17
2023-02-11T21:32:21.503Z,21.57
2023-02-11T21:34:49.233Z,14.37
2023-02-11T21:37:16.712Z,17.33
2023-02-11T21:39:44.159Z,16.47
2023-02-11T21:42:11.666Z,20.50
2023-02-11T21:44:40.444Z,15.23
2023-02-11T21:47:07.911Z,13.83
2023-02-11T21:49:35.353Z,15.33
2023-02-11T21:52:02.842Z,15.43
2023-02-11T21:54:31.975Z,12.70
2023-02-11T21:56:59.660Z,17.10
2023-02-11T21:59:29.178Z,12.80
2023-02-11T22:01:58.780Z,20.00
2023-02-11T22:04:26.710Z,17.10
2023-02-11T22:06:54.280Z,16.80
2023-02-11T22:09:21.729Z,11.83
2023-02-11T22:11:49.736Z,18.97
2023-02-11T22:14:17.598Z,14.93
2023-02-11T22:16:46.279Z,15.07
2023-02-11T22:19:15.472Z,16.83
2023-02-11T22:21:43.990Z,14.63
2023-02-11T22:24:11.704Z,13.93
2023-02-11T22:26:39.306Z,17.33
2023-02-11T22:29:06.866Z,23.03
2023-02-11T22:31:35.665Z,17.80
2023-02-11T22:34:04.517Z,14.07
2023-02-11T22:36:35.679Z,22.30
2023-02-11T22:39:05.192Z,16.50
2023-02-11T22:41:33.096Z,13.80
2023-02-11T22:44:00.661Z,15.07
2023-02-11T22:46:28.270Z,17.97
2023-02-11T22:48:55.893Z,18.13
2023-02-11T22:51:24.738Z,18.13
2023-02-11T22:53:56.123Z,12.70
2023-02-11T22:56:24.288Z,15.63
2023-02-11T22:58:53.259Z,16.10
2023-02-11T23:01:21.152Z,22.93
2023-02-11T23:03:48.758Z,13.83
2023-02-11T23:06:16.564Z,16.43
2023-02-11T23:08:44.329Z,14.47
2023-02-11T23:11:15.856Z,25.43
2023-02-11T23:13:45.186Z,16.30
2023-02-11T23:16:14.347Z,17.73
2023-02-11T23:18:43.883Z,29.47
2023-02-11T23:21:15.752Z,25.53
2023-02-11T23:23:43.544Z,17.40
2023-02-11T23:26:13.868Z,18.53
2023-02-11T23:28:41.708Z,21.13
2023-02-11T23:31:28.514Z,14.70
2023-02-11T23:33:56.474Z,16.87
2023-02-11T23:36:24.604Z,20.20
2023-02-11T23:38:52.874Z,14.80
2023-02-11T23:41:22.808Z,18.33
2023-02-11T23:43:51.652Z,13.63
2023-02-11T23:46:21.719Z,13.10
2023-02-11T23:48:49.915Z,15.50
2023-02-11T23:51:17.697Z,14.60
2023-02-11T23:53:45.834Z,21.30
2023-02-11T23:56:16.453Z,17.83
2023-02-11T23:58:46.249Z,12.00
